Time;durP1;ratioP1;P1;durP2;ratioP2;P2;SDS_P1;SDS_P2;PMS_P1;PMS_P2;Temp;Humidity;BMP_temperature;BMP_pressure;BME280_temperature;BME280_humidity;BME280_pressure;Samples;Min_cycle;Max_cycle;Signal;HPM_P1;HPM_P2
2022/05/09 00:00:14;;;;;;;17.83;4.53;;;6.90;99.90;;;;;;5067338;28;20053;-63
2022/05/09 00:02:40;;;;;;;10.70;4.47;;;6.90;99.90;;;;;;5064631;28;20041;-63
2022/05/09 00:05:07;;;;;;;15.25;4.93;;;7.10;99.90;;;;;;5079114;28;20045;-63
2022/05/09 00:07:33;;;;;;;16.85;5.82;;;7.10;99.90;;;;;;5077700;28;20056;-63
2022/05/09 00:10:00;;;;;;;13.40;4.82;;;7.10;99.90;;;;;;5066263;28;20032;-63
2022/05/09 00:12:26;;;;;;;8.50;3.65;;;7.00;99.90;;;;;;5067399;28;20079;-63
2022/05/09 00:14:52;;;;;;;14.05;5.05;;;7.00;99.90;;;;;;5059121;28;20531;-63
2022/05/09 00:17:18;;;;;;;9.77;4.38;;;6.90;99.90;;;;;;5077006;28;20041;-63
2022/05/09 00:19:44;;;;;;;14.05;4.15;;;6.90;99.90;;;;;;5082775;28;20053;-63
2022/05/09 00:22:10;;;;;;;10.63;4.57;;;6.90;99.90;;;;;;5076290;28;20044;-63
2022/05/09 00:24:36;;;;;;;10.50;4.28;;;6.80;99.90;;;;;;5058056;28;20036;-63
2022/05/09 00:27:02;;;;;;;11.95;4.15;;;6.70;99.90;;;;;;5082263;28;20087;-63
2022/05/09 00:29:28;;;;;;;12.10;4.75;;;6.60;99.90;;;;;;5077449;28;20056;-63
2022/05/09 00:31:58;;;;;;;14.57;3.90;;;6.60;99.90;;;;;;5082790;28;20049;-64
2022/05/09 00:34:25;;;;;;;13.98;4.90;;;6.50;99.90;;;;;;5082488;28;20083;-63
2022/05/09 00:36:55;;;;;;;9.27;4.18;;;6.30;99.90;;;;;;5083429;28;20052;-63
2022/05/09 00:39:22;;;;;;;15.25;4.72;;;6.30;99.90;;;;;;5076816;28;20052;-63
2022/05/09 00:41:48;;;;;;;14.00;4.70;;;6.30;99.90;;;;;;5078828;28;20092;-63
2022/05/09 00:44:27;;;;;;;12.02;4.63;;;6.30;99.90;;;;;;5082081;28;20044;-63
2022/05/09 00:46:56;;;;;;;15.75;4.78;;;6.40;99.90;;;;;;5070589;28;20091;-63
2022/05/09 00:49:33;;;;;;;15.68;4.53;;;6.30;99.90;;;;;;5072096;28;20412;-63
2022/05/09 00:52:02;;;;;;;15.98;4.80;;;6.30;99.90;;;;;;5070008;28;20043;-63
2022/05/09 00:54:33;;;;;;;11.43;4.40;;;6.30;99.90;;;;;;5076842;28;20052;-63
2022/05/09 00:57:04;;;;;;;16.08;5.10;;;6.30;99.90;;;;;;5070519;28;20051;-63
2022/05/09 00:59:34;;;;;;;17.65;4.80;;;6.20;99.90;;;;;;5073949;28;20062;-63
2022/05/09 01:02:00;;;;;;;;;;;6.00;99.90;;;;;;5080953;28;20049;-64
2022/05/09 01:04:29;;;;;;;9.93;4.72;;;5.90;99.90;;;;;;5084551;28;19950;-63
2022/05/09 01:06:55;;;;;;;9.45;4.13;;;6.00;99.90;;;;;;5073268;28;20101;-63
2022/05/09 01:09:21;;;;;;;13.23;4.65;;;6.00;99.90;;;;;;5075300;28;20048;-63
2022/05/09 01:11:48;;;;;;;9.38;4.72;;;5.80;99.90;;;;;;5074536;28;20056;-63
2022/05/09 01:14:16;;;;;;;10.60;3.58;;;5.60;99.90;;;;;;5086058;28;20074;-63
2022/05/09 01:16:43;;;;;;;8.07;3.90;;;5.70;99.90;;;;;;5078628;28;20040;-63
2022/05/09 01:19:30;;;;;;;10.73;4.25;;;5.70;99.90;;;;;;5076317;28;20504;-63
2022/05/09 01:21:58;;;;;;;12.77;4.18;;;5.80;99.90;;;;;;5069553;28;20485;-63
2022/05/09 01:24:25;;;;;;;13.88;4.60;;;5.80;99.90;;;;;;5071091;28;20047;-63
2022/05/09 01:26:51;;;;;;;15.75;4.95;;;5.80;99.90;;;;;;5072740;28;20067;-63
2022/05/09 01:29:33;;;;;;;16.10;5.43;;;5.80;99.90;;;;;;5078954;28;20072;-63
2022/05/09 01:32:01;;;;;;;12.85;5.25;;;5.80;99.90;;;;;;5072547;28;20072;-63
2022/05/09 01:34:30;;;;;;;15.27;5.68;;;6.00;99.90;;;;;;5067566;28;20052;-63
2022/05/09 01:37:01;;;;;;;18.15;5.53;;;6.00;99.90;;;;;;5075222;28;20041;-63
2022/05/09 01:39:29;;;;;;;11.05;5.53;;;6.20;99.90;;;;;;5068668;28;20045;-63
2022/05/09 01:41:55;;;;;;;11.85;5.35;;;6.10;99.90;;;;;;5083826;28;20055;-63
2022/05/09 01:44:21;;;;;;;14.30;5.07;;;6.10;99.90;;;;;;5084120;28;20127;-63
2022/05/09 01:49:34;;;;;;;18.42;5.95;;;6.10;99.90;;;;;;5075531;28;20064;-63
2022/05/09 01:52:04;;;;;;;15.57;6.40;;;6.10;99.90;;;;;;5082676;28;20067;-63
2022/05/09 01:54:30;;;;;;;15.95;5.50;;;6.00;99.90;;;;;;5077418;28;20501;-63
2022/05/09 01:56:56;;;;;;;9.82;5.68;;;6.10;99.90;;;;;;5075034;28;20075;-63
2022/05/09 01:59:23;;;;;;;16.58;5.93;;;6.00;99.90;;;;;;5069210;28;20485;-63
2022/05/09 02:01:55;;;;;;;8.98;4.95;;;5.90;99.90;;;;;;5065269;28;20080;-63
2022/05/09 02:04:22;;;;;;;12.00;4.75;;;5.80;99.90;;;;;;5070697;28;20040;-63
2022/05/09 02:06:48;;;;;;;14.18;5.82;;;5.70;99.90;;;;;;5073063;28;20051;-63
2022/05/09 02:09:13;;;;;;;12.15;5.15;;;5.80;99.90;;;;;;5070787;28;20052;-63
2022/05/09 02:11:39;;;;;;;15.85;5.72;;;5.80;99.90;;;;;;5070433;28;20048;-63
2022/05/09 02:14:05;;;;;;;11.93;6.18;;;5.80;99.90;;;;;;5081366;28;20095;-63
2022/05/09 02:16:32;;;;;;;14.52;6.15;;;5.80;99.90;;;;;;5070969;28;20041;-63
2022/05/09 02:18:57;;;;;;;13.45;4.88;;;5.90;99.90;;;;;;5067545;28;20052;-63
2022/05/09 02:21:23;;;;;;;8.32;4.40;;;5.90;99.90;;;;;;5066536;28;20041;-63
2022/05/09 02:23:49;;;;;;;13.07;4.90;;;5.80;99.90;;;;;;5071694;28;20044;-63
2022/05/09 02:26:15;;;;;;;13.82;6.35;;;5.70;99.90;;;;;;5057107;28;20053;-63
2022/05/09 02:28:41;;;;;;;23.02;7.95;;;5.70;99.90;;;;;;5070405;28;20123;-63
2022/05/09 02:31:06;;;;;;;17.50;6.22;;;5.60;99.90;;;;;;5069307;28;20219;-63
2022/05/09 02:33:32;;;;;;;16.67;6.18;;;5.60;99.90;;;;;;5079209;28;20083;-63
2022/05/09 02:35:58;;;;;;;11.85;5.50;;;5.60;99.90;;;;;;5072844;28;20049;-63
2022/05/09 02:38:24;;;;;;;16.33;6.40;;;5.70;99.90;;;;;;5071988;28;20043;-63
2022/05/09 02:40:53;;;;;;;13.20;5.18;;;5.80;99.90;;;;;;5080930;28;20068;-63
2022/05/09 02:43:19;;;;;;;15.45;6.07;;;5.90;99.90;;;;;;5057809;28;20045;-63
2022/05/09 02:45:45;;;;;;;18.02;6.65;;;5.80;99.90;;;;;;5069353;28;20037;-63
2022/05/09 02:48:11;;;;;;;12.23;6.78;;;5.60;99.90;;;;;;5080115;28;20104;-63
2022/05/09 02:50:37;;;;;;;13.75;6.47;;;5.30;99.90;;;;;;5077100;28;20040;-63
2022/05/09 02:53:03;;;;;;;14.57;5.53;;;5.10;99.90;;;;;;5071000;28;20048;-63
2022/05/09 02:55:31;;;;;;;11.02;5.78;;;5.00;99.90;;;;;;5078661;28;20099;-63
2022/05/09 02:57:58;;;;;;;14.02;6.10;;;5.10;99.90;;;;;;5066406;28;20045;-63
2022/05/09 03:00:29;;;;;;;12.35;6.10;;;5.20;99.90;;;;;;5083462;28;20123;-63
2022/05/09 03:05:41;;;;;;;14.52;5.68;;;5.10;99.90;;;;;;5065448;28;20062;-63
2022/05/09 03:08:09;;;;;;;14.55;6.10;;;4.90;99.90;;;;;;5075180;28;20040;-63
2022/05/09 03:10:36;;;;;;;13.75;5.63;;;4.90;99.90;;;;;;5081297;28;20057;-63
2022/05/09 03:13:03;;;;;;;14.93;6.15;;;5.10;99.90;;;;;;5064035;28;20052;-63
2022/05/09 03:15:31;;;;;;;12.73;6.13;;;5.10;99.90;;;;;;5075426;28;20049;-63
2022/05/09 03:17:57;;;;;;;16.00;6.95;;;5.20;99.90;;;;;;5073205;28;20043;-63
2022/05/09 03:20:23;;;;;;;18.02;7.13;;;5.10;99.90;;;;;;5073536;28;20405;-63
2022/05/09 03:22:49;;;;;;;12.27;6.03;;;4.90;99.90;;;;;;5076715;28;20064;-63
2022/05/09 03:25:16;;;;;;;9.45;6.25;;;4.80;99.90;;;;;;5067393;28;20086;-63
2022/05/09 03:27:41;;;;;;;11.35;5.97;;;4.60;99.90;;;;;;5075784;28;20061;-63
2022/05/09 03:30:09;;;;;;;16.40;6.60;;;4.60;99.90;;;;;;5081475;28;20051;-63
2022/05/09 03:32:35;;;;;;;10.90;6.45;;;4.60;99.90;;;;;;5073029;28;20041;-63
2022/05/09 03:35:03;;;;;;;10.80;7.63;;;4.70;99.90;;;;;;5080909;28;20052;-63
2022/05/09 03:37:30;;;;;;;14.80;7.78;;;4.70;99.90;;;;;;5077276;28;20105;-63
2022/05/09 03:39:56;;;;;;;11.10;7.78;;;4.70;99.90;;;;;;5071628;28;20053;-63
2022/05/09 03:42:21;;;;;;;11.65;7.47;;;4.70;99.90;;;;;;5067844;28;20055;-63
2022/05/09 03:44:47;;;;;;;10.98;5.82;;;4.50;99.90;;;;;;5072077;28;20044;-63
2022/05/09 03:47:13;;;;;;;10.63;6.15;;;4.50;99.90;;;;;;5080923;28;20052;-63
2022/05/09 03:49:39;;;;;;;11.50;4.65;;;4.60;99.90;;;;;;5074800;28;20041;-63
2022/05/09 03:52:05;;;;;;;16.13;5.95;;;4.60;99.90;;;;;;5071262;28;20037;-63
2022/05/09 03:54:30;;;;;;;13.95;6.07;;;4.60;99.90;;;;;;5076336;28;20040;-63
2022/05/09 03:56:56;;;;;;;11.95;5.95;;;4.90;99.90;;;;;;5085944;28;20484;-63
2022/05/09 03:59:22;;;;;;;16.92;7.30;;;4.90;99.90;;;;;;5086806;28;20044;-63
2022/05/09 04:01:47;;;;;;;16.17;7.22;;;5.00;99.90;;;;;;5076133;28;20124;-63
2022/05/09 04:04:14;;;;;;;12.27;5.78;;;5.00;99.90;;;;;;5078991;28;20049;-63
2022/05/09 04:06:39;;;;;;;12.77;6.15;;;5.00;99.90;;;;;;5068698;28;20119;-63
2022/05/09 04:09:05;;;;;;;14.23;6.05;;;5.10;99.90;;;;;;5071602;28;20075;-63
2022/05/09 04:11:31;;;;;;;13.77;5.40;;;5.10;99.90;;;;;;5072779;28;20056;-63
2022/05/09 04:13:57;;;;;;;12.60;5.95;;;5.10;99.90;;;;;;5078632;28;20040;-63
2022/05/09 04:19:07;;;;;;;15.32;6.65;;;5.10;99.90;;;;;;5084238;28;20080;-63
2022/05/09 04:21:33;;;;;;;15.52;7.30;;;5.10;99.90;;;;;;5084367;28;20056;-63
2022/05/09 04:23:59;;;;;;;14.32;6.00;;;5.20;99.90;;;;;;5082948;28;20036;-63
2022/05/09 04:26:27;;;;;;;9.60;5.70;;;5.20;99.90;;;;;;5078927;28;20061;-63
2022/05/09 04:28:53;;;;;;;12.57;5.90;;;5.20;99.90;;;;;;5079931;28;20052;-63
2022/05/09 04:31:22;;;;;;;9.55;6.32;;;5.30;99.90;;;;;;5050816;28;20084;-63
2022/05/09 04:33:48;;;;;;;16.55;6.88;;;5.30;99.90;;;;;;5070524;28;20097;-63
2022/05/09 04:36:14;;;;;;;16.02;6.63;;;5.40;99.90;;;;;;5079917;28;20063;-63
2022/05/09 04:38:42;;;;;;;12.95;6.25;;;5.30;99.90;;;;;;5078950;28;20044;-62
2022/05/09 04:41:10;;;;;;;12.98;6.88;;;5.40;99.90;;;;;;5056130;28;20055;-64
2022/05/09 04:43:36;;;;;;;10.70;6.47;;;5.40;99.90;;;;;;5059750;28;20048;-63
2022/05/09 04:46:04;;;;;;;9.10;5.95;;;5.40;99.90;;;;;;5059660;28;20060;-63
2022/05/09 04:48:30;;;;;;;12.35;6.70;;;5.60;99.90;;;;;;5081336;28;20491;-62
2022/05/09 04:50:57;;;;;;;10.38;6.32;;;5.60;99.90;;;;;;5053267;28;20075;-62
2022/05/09 04:53:24;;;;;;;14.35;6.72;;;5.60;99.90;;;;;;5074131;28;20068;-62
2022/05/09 04:55:50;;;;;;;16.73;7.03;;;5.70;99.90;;;;;;5071711;28;20093;-63
2022/05/09 04:58:20;;;;;;;11.93;7.35;;;5.80;99.90;;;;;;5076746;28;20048;-63
2022/05/09 05:00:46;;;;;;;15.27;8.63;;;5.80;99.90;;;;;;5069049;28;20051;-63
2022/05/09 05:03:12;;;;;;;11.68;7.28;;;5.80;99.90;;;;;;5076086;28;20082;-63
2022/05/09 05:05:39;;;;;;;14.85;7.70;;;5.90;99.90;;;;;;5069648;28;20051;-64
2022/05/09 05:08:05;;;;;;;16.88;8.15;;;6.00;99.90;;;;;;5084988;28;20527;-64
2022/05/09 05:10:31;;;;;;;53.88;10.43;;;6.10;99.90;;;;;;5069325;28;20190;-64
2022/05/09 05:12:58;;;;;;;28.13;9.15;;;6.20;99.90;;;;;;5078607;28;20480;-63
2022/05/09 05:15:25;;;;;;;20.13;8.30;;;6.30;99.90;;;;;;5069352;28;20049;-63
2022/05/09 05:17:51;;;;;;;23.33;8.32;;;6.30;99.90;;;;;;5079102;28;20099;-66
2022/05/09 05:20:17;;;;;;;18.38;8.52;;;6.40;99.90;;;;;;5085300;28;20439;-66
2022/05/09 05:22:47;;;;;;;19.98;8.70;;;6.50;99.90;;;;;;5075754;28;20071;-66
2022/05/09 05:25:14;;;;;;;22.75;9.15;;;6.60;99.90;;;;;;5065220;28;20143;-66
2022/05/09 05:27:40;;;;;;;21.88;9.00;;;6.50;99.90;;;;;;5088312;28;20114;-66
2022/05/09 05:30:09;;;;;;;20.80;9.88;;;6.70;99.90;;;;;;5063100;28;20059;-67
2022/05/09 05:32:36;;;;;;;22.17;8.88;;;6.70;99.90;;;;;;5048406;28;20057;-66
2022/05/09 05:35:08;;;;;;;17.48;9.38;;;6.90;99.90;;;;;;5059443;28;20052;-66
2022/05/09 05:37:34;;;;;;;20.25;9.30;;;7.00;99.90;;;;;;5061740;28;20055;-66
2022/05/09 05:40:01;;;;;;;21.83;10.02;;;7.00;99.90;;;;;;5050195;28;20053;-67
2022/05/09 05:42:31;;;;;;;22.08;9.50;;;7.00;99.90;;;;;;5033174;28;20045;-66
2022/05/09 05:44:58;;;;;;;23.30;9.20;;;7.20;99.90;;;;;;5038036;28;20108;-66
2022/05/09 05:47:24;;;;;;;22.10;9.82;;;7.20;99.90;;;;;;5052369;28;20068;-66
2022/05/09 05:49:50;;;;;;;19.55;10.50;;;7.30;99.90;;;;;;5057124;28;20472;-67
2022/05/09 05:52:16;;;;;;;25.30;9.80;;;7.40;99.90;;;;;;5042739;28;20044;-66
2022/05/09 05:54:46;;;;;;;17.80;9.27;;;7.50;99.90;;;;;;5054313;28;23082;-66
2022/05/09 05:57:22;;;;;;;24.10;9.95;;;7.60;99.90;;;;;;5048528;28;20049;-66
2022/05/09 05:59:50;;;;;;;22.60;9.85;;;7.70;99.90;;;;;;5050998;28;20050;-66
2022/05/09 06:02:16;;;;;;;24.02;11.05;;;7.80;99.90;;;;;;5061746;28;20444;-66
2022/05/09 06:04:41;;;;;;;22.85;10.32;;;8.00;99.90;;;;;;5051774;28;20065;-64
2022/05/09 06:07:07;;;;;;;21.75;10.13;;;8.00;99.90;;;;;;5051529;28;20056;-64
2022/05/09 06:09:33;;;;;;;26.58;10.93;;;8.10;99.90;;;;;;5040275;28;20057;-64
2022/05/09 06:12:01;;;;;;;21.73;10.07;;;8.10;99.90;;;;;;5043702;28;20051;-64
2022/05/09 06:14:27;;;;;;;23.38;9.63;;;8.20;99.90;;;;;;5047111;28;20041;-64
2022/05/09 06:16:54;;;;;;;22.10;9.80;;;8.40;99.90;;;;;;5059127;28;20044;-64
2022/05/09 06:19:21;;;;;;;22.20;10.38;;;8.50;99.90;;;;;;5053215;28;20075;-64
2022/05/09 06:21:47;;;;;;;24.00;9.95;;;8.50;99.90;;;;;;5048008;28;20130;-64
2022/05/09 06:24:13;;;;;;;22.75;9.50;;;8.70;99.90;;;;;;5058598;28;20041;-64
2022/05/09 06:26:40;;;;;;;26.02;9.80;;;8.90;99.90;;;;;;5037897;28;20072;-64
2022/05/09 06:29:06;;;;;;;20.88;9.70;;;8.80;99.90;;;;;;5068465;28;20057;-64
2022/05/09 06:31:36;;;;;;;18.20;8.30;;;8.90;99.90;;;;;;5036696;28;20053;-64
2022/05/09 06:34:03;;;;;;;17.67;8.45;;;9.00;99.90;;;;;;5048490;28;20048;-64
2022/05/09 06:36:34;;;;;;;24.08;9.98;;;9.00;99.90;;;;;;5030604;28;20044;-64
2022/05/09 06:39:02;;;;;;;21.50;10.27;;;9.20;99.90;;;;;;5069010;28;20048;-63
2022/05/09 06:41:28;;;;;;;27.58;10.25;;;9.20;99.90;;;;;;5066800;28;20078;-63
2022/05/09 06:43:54;;;;;;;23.50;10.55;;;9.40;99.90;;;;;;5072382;28;20032;-64
2022/05/09 06:46:19;;;;;;;21.02;10.40;;;9.40;99.90;;;;;;5075335;28;20194;-63
2022/05/09 06:48:45;;;;;;;20.92;9.63;;;9.40;99.90;;;;;;5052853;28;20079;-63
2022/05/09 06:51:11;;;;;;;19.83;9.77;;;9.60;99.90;;;;;;5073166;28;20078;-63
2022/05/09 06:53:37;;;;;;;20.00;9.45;;;9.60;99.90;;;;;;5065443;28;20139;-63
2022/05/09 06:56:04;;;;;;;22.17;10.10;;;9.70;99.90;;;;;;5071218;28;20356;-63
2022/05/09 06:58:29;;;;;;;15.75;8.10;;;9.70;99.90;;;;;;5092141;28;20082;-63
2022/05/09 07:00:56;;;;;;;25.85;10.15;;;9.90;99.90;;;;;;5078510;28;20052;-63
2022/05/09 07:03:22;;;;;;;19.75;9.63;;;10.00;99.90;;;;;;5068709;28;20048;-62
2022/05/09 07:05:49;;;;;;;23.33;8.55;;;10.10;99.90;;;;;;5075994;28;20033;-63
2022/05/09 07:08:16;;;;;;;17.58;9.68;;;10.10;99.90;;;;;;5065795;28;20056;-63
2022/05/09 07:10:42;;;;;;;19.27;8.32;;;10.20;99.90;;;;;;5065938;28;20532;-63
2022/05/09 07:13:07;;;;;;;17.30;7.68;;;10.40;99.90;;;;;;5066602;28;20883;-63
2022/05/09 07:15:34;;;;;;;13.38;6.38;;;10.30;99.90;;;;;;5079937;28;20040;-63
2022/05/09 07:18:00;;;;;;;15.23;8.30;;;10.40;99.90;;;;;;5075738;28;20071;-63
2022/05/09 07:20:32;;;;;;;16.92;7.70;;;10.50;99.90;;;;;;5071215;28;20048;-63
2022/05/09 07:23:10;;;;;;;19.13;7.40;;;10.70;99.90;;;;;;5070827;28;20236;-63
2022/05/09 07:25:37;;;;;;;16.80;7.93;;;10.70;99.90;;;;;;5083231;28;20036;-63
2022/05/09 07:28:03;;;;;;;19.88;7.88;;;10.80;99.90;;;;;;5075390;28;20040;-64
2022/05/09 07:30:30;;;;;;;17.33;7.60;;;10.90;99.90;;;;;;5092289;28;20079;-64
2022/05/09 07:32:56;;;;;;;14.15;6.93;;;11.00;99.90;;;;;;5063971;28;20078;-64
2022/05/09 07:35:22;;;;;;;12.70;7.07;;;11.00;99.90;;;;;;5076757;28;20104;-64
2022/05/09 07:37:48;;;;;;;19.30;7.22;;;11.20;99.90;;;;;;5069405;28;20167;-63
2022/05/09 07:40:17;;;;;;;16.85;7.45;;;11.10;99.90;;;;;;5086078;28;20129;-63
2022/05/09 07:42:44;;;;;;;18.10;8.00;;;11.00;99.90;;;;;;5068318;28;20135;-63
2022/05/09 07:45:12;;;;;;;19.30;8.25;;;11.10;99.90;;;;;;5067137;28;20045;-63
2022/05/09 07:47:39;;;;;;;19.55;8.43;;;11.30;99.90;;;;;;5070178;28;20100;-63
2022/05/09 07:50:07;;;;;;;16.35;7.10;;;11.40;99.90;;;;;;5085950;28;20277;-64
2022/05/09 07:52:33;;;;;;;17.17;7.47;;;11.50;99.90;;;;;;5065473;28;20044;-64
2022/05/09 07:54:59;;;;;;;17.58;7.75;;;11.60;99.90;;;;;;5086297;28;21002;-63
2022/05/09 07:57:25;;;;;;;16.75;7.20;;;11.70;99.90;;;;;;5078534;28;20068;-63
2022/05/09 07:59:51;;;;;;;15.45;7.50;;;11.70;99.90;;;;;;5082355;28;20051;-63
2022/05/09 08:02:16;;;;;;;17.90;7.30;;;11.90;99.90;;;;;;5070214;28;20041;-63
2022/05/09 08:04:42;;;;;;;17.80;7.40;;;12.00;99.90;;;;;;5065888;28;20195;-63
2022/05/09 08:07:08;;;;;;;16.60;7.22;;;12.10;99.90;;;;;;5069144;28;20052;-63
2022/05/09 08:09:35;;;;;;;14.90;7.50;;;12.10;99.90;;;;;;5082893;28;20059;-63
2022/05/09 08:12:03;;;;;;;15.93;6.72;;;12.20;99.90;;;;;;5076436;28;20123;-63
2022/05/09 08:14:29;;;;;;;16.45;6.90;;;12.20;99.90;;;;;;5055877;28;20052;-63
2022/05/09 08:16:55;;;;;;;15.35;7.03;;;12.10;99.90;;;;;;5070984;28;20044;-63
2022/05/09 08:19:21;;;;;;;16.20;7.38;;;12.40;99.90;;;;;;5065457;28;20048;-63
2022/05/09 08:21:49;;;;;;;13.40;7.72;;;12.40;99.90;;;;;;5061948;28;20052;-63
2022/05/09 08:24:16;;;;;;;15.63;7.22;;;12.50;99.90;;;;;;5068371;28;20087;-64
2022/05/09 08:26:42;;;;;;;17.90;7.57;;;12.60;99.90;;;;;;5055269;28;20067;-63
2022/05/09 08:29:09;;;;;;;13.90;6.75;;;12.60;99.90;;;;;;5072828;28;20431;-63
2022/05/09 08:31:35;;;;;;;17.48;7.53;;;12.70;99.90;;;;;;5053352;28;20139;-64
2022/05/09 08:34:01;;;;;;;15.13;7.97;;;12.80;99.90;;;;;;5072745;28;20056;-63
2022/05/09 08:39:11;;;;;;;13.73;6.78;;;13.00;99.90;;;;;;5069483;28;20051;-63
2022/05/09 08:42:00;;;;;;;18.60;6.72;;;13.10;99.90;;;;;;5085237;28;20041;-63
2022/05/09 08:44:40;;;;;;;13.17;6.20;;;13.20;99.90;;;;;;5071719;28;20048;-63
2022/05/09 08:47:06;;;;;;;15.65;5.93;;;13.30;99.90;;;;;;5074395;28;20087;-63
2022/05/09 08:49:52;;;;;;;17.25;6.35;;;13.30;99.90;;;;;;5077338;28;20048;-63
2022/05/09 08:52:49;;;;;;;22.55;6.47;;;13.50;99.90;;;;;;5083211;28;20039;-63
2022/05/09 08:55:19;;;;;;;17.02;7.00;;;13.40;99.90;;;;;;5068621;28;20146;-62
2022/05/09 08:57:51;;;;;;;;;;;13.70;99.90;;;;;;5079991;28;20032;-62
2022/05/09 09:00:20;;;;;;;18.80;6.40;;;13.80;99.90;;;;;;5069319;28;19990;-62
2022/05/09 09:03:13;;;;;;;12.02;5.55;;;14.00;99.90;;;;;;5076022;28;20041;-63
2022/05/09 09:05:44;;;;;;;14.15;5.47;;;14.10;99.90;;;;;;5075476;28;20055;-63
2022/05/09 09:08:40;;;;;;;13.20;5.65;;;14.00;99.90;;;;;;5081961;28;20055;-64
2022/05/09 09:11:22;;;;;;;10.60;5.22;;;14.10;99.90;;;;;;5076843;28;20502;-63
2022/05/09 09:14:04;;;;;;;16.13;5.57;;;14.10;99.90;;;;;;5064957;28;20432;-63
2022/05/09 09:16:37;;;;;;;18.90;5.55;;;14.20;99.90;;;;;;5072835;28;20063;-63
2022/05/09 09:19:39;;;;;;;12.57;4.68;;;14.30;99.90;;;;;;5068201;28;20082;-63
2022/05/09 09:22:31;;;;;;;14.27;5.03;;;14.30;99.90;;;;;;5048323;28;20051;-63
2022/05/09 09:25:12;;;;;;;13.15;5.50;;;14.40;99.90;;;;;;5065643;28;20063;-63
2022/05/09 09:27:46;;;;;;;9.50;4.32;;;14.60;99.90;;;;;;5082190;28;20080;-63
2022/05/09 09:30:18;;;;;;;12.77;5.15;;;14.70;99.90;;;;;;5077447;28;20054;-63
2022/05/09 09:33:03;;;;;;;12.18;5.15;;;14.80;99.90;;;;;;5065400;28;20098;-62
2022/05/09 09:35:55;;;;;;;11.18;5.10;;;14.90;99.90;;;;;;5068722;28;20074;-63
2022/05/09 09:38:29;;;;;;;14.38;4.65;;;14.90;99.90;;;;;;5082172;28;20048;-61
2022/05/09 09:40:55;;;;;;;14.45;4.53;;;15.00;99.90;;;;;;5072583;28;20044;-61
2022/05/09 09:43:21;;;;;;;27.70;5.57;;;15.20;99.90;;;;;;5078366;28;20064;-61
2022/05/09 09:46:02;;;;;;;13.10;4.38;;;15.40;99.90;;;;;;5079443;28;20630;-62
2022/05/09 09:48:30;;;;;;;10.32;4.15;;;15.50;99.90;;;;;;5075184;28;20138;-61
2022/05/09 09:51:00;;;;;;;11.00;4.15;;;15.60;99.90;;;;;;5036146;28;20048;-61
2022/05/09 09:53:34;;;;;;;8.73;4.25;;;15.90;99.90;;;;;;5069983;28;20052;-61
2022/05/09 09:56:09;;;;;;;12.65;3.80;;;15.90;99.90;;;;;;5077765;28;20044;-61
2022/05/09 09:58:38;;;;;;;8.85;3.97;;;15.90;99.90;;;;;;5075749;28;20170;-61
2022/05/09 10:01:21;;;;;;;7.00;3.55;;;15.90;99.90;;;;;;5082499;28;20099;-61
2022/05/09 10:04:03;;;;;;;9.15;3.55;;;15.90;99.90;;;;;;5074590;28;20388;-62
2022/05/09 10:06:30;;;;;;;9.98;3.78;;;16.00;99.90;;;;;;5080271;28;20075;-62
2022/05/09 10:09:02;;;;;;;8.25;3.90;;;16.20;99.90;;;;;;5080768;28;20055;-62
2022/05/09 10:11:30;;;;;;;7.43;3.80;;;16.40;99.90;;;;;;5075698;28;20067;-61
2022/05/09 10:14:02;;;;;;;10.88;4.07;;;16.30;99.90;;;;;;5060687;28;20043;-61
2022/05/09 10:16:35;;;;;;;10.63;4.35;;;16.50;99.90;;;;;;5064948;28;20055;-62
2022/05/09 10:19:06;;;;;;;10.77;4.00;;;16.60;99.90;;;;;;5073689;28;20056;-62
2022/05/09 10:24:49;;;;;;;8.73;4.75;;;16.80;99.90;;;;;;5067494;28;20075;-62
2022/05/09 10:27:21;;;;;;;16.00;5.10;;;17.00;99.90;;;;;;5074251;28;20064;-62
2022/05/09 10:29:48;;;;;;;10.60;4.03;;;17.10;99.90;;;;;;5074481;28;20301;-62
2022/05/09 10:32:19;;;;;;;9.48;3.97;;;17.20;99.90;;;;;;5058285;28;20057;-62
2022/05/09 10:35:19;;;;;;;9.52;3.75;;;17.30;99.90;;;;;;5079895;28;20469;-62
2022/05/09 10:37:48;;;;;;;9.80;3.92;;;17.50;99.90;;;;;;5071651;28;20082;-61
2022/05/09 10:40:39;;;;;;;8.07;3.40;;;17.30;99.90;;;;;;5069140;28;20135;-62
2022/05/09 10:43:29;;;;;;;9.70;4.15;;;17.40;99.90;;;;;;5083236;28;20063;-62
2022/05/09 10:45:55;;;;;;;6.97;3.22;;;17.50;99.90;;;;;;5066974;28;20230;-62
2022/05/09 10:48:37;;;;;;;8.05;3.40;;;17.60;99.90;;;;;;5075693;28;20036;-62
2022/05/09 10:51:19;;;;;;;9.93;3.90;;;17.70;99.90;;;;;;5067708;28;20057;-62
2022/05/09 10:54:12;;;;;;;9.63;3.75;;;17.80;99.90;;;;;;5076414;28;20036;-63
2022/05/09 10:56:57;;;;;;;8.98;3.10;;;17.80;99.90;;;;;;5062335;28;20074;-62
2022/05/09 10:59:28;;;;;;;9.75;3.67;;;17.90;99.90;;;;;;5075949;28;20044;-62
2022/05/09 11:02:21;;;;;;;7.22;3.28;;;17.80;99.90;;;;;;5061971;28;20043;-62
2022/05/09 11:04:46;;;;;;;9.07;3.53;;;17.80;99.90;;;;;;5077054;28;20076;-62
2022/05/09 11:07:32;;;;;;;7.68;3.15;;;17.60;99.90;;;;;;5067059;28;20060;-62
2022/05/09 11:10:32;;;;;;;7.80;3.15;;;17.80;99.90;;;;;;5074491;28;20078;-62
2022/05/09 11:13:16;;;;;;;;;;;18.00;99.90;;;;;;5065048;28;20052;-62
2022/05/09 11:16:00;;;;;;;6.65;2.70;;;18.10;99.90;;;;;;5070954;28;19920;-62
2022/05/09 11:18:51;;;;;;;8.95;3.53;;;18.10;99.90;;;;;;5082063;28;20044;-62
2022/05/09 11:21:52;;;;;;;8.23;3.30;;;18.10;99.90;;;;;;5076782;28;20047;-62
2022/05/09 11:24:21;;;;;;;6.28;3.10;;;18.10;99.90;;;;;;5091330;28;20102;-62
2022/05/09 11:27:11;;;;;;;8.57;3.63;;;18.10;99.90;;;;;;5068939;28;20039;-62
2022/05/09 11:30:14;;;;;;;8.60;3.78;;;18.20;99.90;;;;;;5071460;28;20041;-62
2022/05/09 11:32:42;;;;;;;8.65;3.28;;;18.30;99.90;;;;;;5046361;28;20064;-62
2022/05/09 11:35:32;;;;;;;7.28;3.55;;;18.30;99.90;;;;;;5072081;28;20053;-62
2022/05/09 11:38:37;;;;;;;5.65;3.63;;;18.60;99.90;;;;;;5063509;28;20106;-62
2022/05/09 11:41:31;;;;;;;6.45;3.08;;;18.80;99.90;;;;;;5066276;28;20059;-62
2022/05/09 11:44:18;;;;;;;9.40;3.40;;;18.90;99.90;;;;;;5067588;28;20059;-62
2022/05/09 11:47:14;;;;;;;13.45;3.70;;;18.90;99.90;;;;;;5064636;28;20070;-62
2022/05/09 11:49:45;;;;;;;10.13;3.45;;;19.10;99.90;;;;;;5072798;28;20139;-62
2022/05/09 11:52:49;;;;;;;11.82;3.67;;;19.00;99.90;;;;;;5063823;28;20592;-62
2022/05/09 11:55:22;;;;;;;5.88;3.58;;;19.80;96.40;;;;;;5029778;28;20204;-62
2022/05/09 11:57:56;;;;;;;7.60;3.35;;;19.70;97.10;;;;;;5005656;28;20304;-62
2022/05/09 12:00:25;;;;;;;6.55;3.45;;;19.70;96.70;;;;;;5030609;28;20496;-62
2022/05/09 12:02:54;;;;;;;6.28;3.10;;;19.90;95.60;;;;;;5019424;28;20188;-62
2022/05/09 12:05:26;;;;;;;8.63;3.63;;;19.80;94.90;;;;;;5016975;28;20049;-62
2022/05/09 12:08:20;;;;;;;7.93;3.35;;;19.90;95.40;;;;;;5019383;28;20081;-62
2022/05/09 12:11:08;;;;;;;5.85;3.15;;;19.90;95.90;;;;;;5022929;28;20605;-63
2022/05/09 12:13:43;;;;;;;6.88;3.58;;;20.00;92.90;;;;;;5014161;28;20084;-62
2022/05/09 12:16:29;;;;;;;7.50;3.00;;;20.10;93.40;;;;;;5002020;28;20057;-63
2022/05/09 12:19:00;;;;;;;15.65;3.45;;;20.20;92.70;;;;;;5023782;28;20088;-62
2022/05/09 12:21:46;;;;;;;6.82;3.60;;;20.30;92.10;;;;;;5022140;28;20049;-62
2022/05/09 12:24:14;;;;;;;10.07;4.18;;;20.40;91.00;;;;;;5032779;28;20140;-62
2022/05/09 12:26:43;;;;;;;9.98;3.80;;;20.50;89.30;;;;;;5056792;28;20106;-63
2022/05/09 12:29:12;;;;;;;8.70;3.95;;;20.50;90.00;;;;;;5073257;28;20113;-63
2022/05/09 12:31:56;;;;;;;7.20;2.78;;;20.50;89.20;;;;;;5059329;28;20065;-62
2022/05/09 12:34:27;;;;;;;8.05;3.67;;;20.50;90.60;;;;;;5088410;28;20507;-62
2022/05/09 12:36:53;;;;;;;7.10;3.30;;;20.80;85.50;;;;;;5081375;28;20048;-62
2022/05/09 12:39:42;;;;;;;10.27;3.63;;;20.90;83.20;;;;;;5077345;28;20061;-62
2022/05/09 12:42:12;;;;;;;7.30;3.33;;;20.90;85.20;;;;;;5068783;28;20056;-62
2022/05/09 12:44:38;;;;;;;;;;;21.20;84.40;;;;;;5084462;28;20976;-63
2022/05/09 12:47:10;;;;;;;8.30;3.13;;;21.20;85.40;;;;;;5071692;28;19936;-63
2022/05/09 12:49:40;;;;;;;6.32;3.47;;;21.10;82.80;;;;;;5078625;28;20055;-62
2022/05/09 12:52:08;;;;;;;6.72;3.28;;;21.10;79.60;;;;;;5075984;28;20040;-63
2022/05/09 12:54:37;;;;;;;7.85;3.13;;;21.20;82.50;;;;;;5076189;28;20127;-63
2022/05/09 12:57:04;;;;;;;10.77;4.70;;;21.20;82.10;;;;;;5066293;28;20532;-63
2022/05/09 12:59:51;;;;;;;7.00;3.25;;;21.40;80.60;;;;;;5072395;28;20063;-63
2022/05/09 13:02:24;;;;;;;7.15;3.05;;;21.50;83.60;;;;;;5075138;28;20068;-64
2022/05/09 13:04:52;;;;;;;12.38;3.85;;;21.50;83.50;;;;;;5074223;28;20067;-64
2022/05/09 13:07:18;;;;;;;9.27;3.92;;;21.90;78.80;;;;;;5049488;28;20232;-63
2022/05/09 13:09:55;;;;;;;7.55;3.35;;;21.80;77.80;;;;;;5076457;28;20051;-63
2022/05/09 13:12:33;;;;;;;9.13;3.55;;;21.80;75.90;;;;;;5069626;28;20048;-63
2022/05/09 13:15:06;;;;;;;9.68;3.45;;;22.00;73.50;;;;;;5074926;28;20037;-63
2022/05/09 13:17:39;;;;;;;7.20;3.40;;;22.10;73.40;;;;;;5071686;28;20059;-63